VIR135G EGLL-KMCO
Flight info
| Callsign | VIR135G |
|---|---|
| Flight time | N/A |
| Altitude | 36000 |
| Route | CPT DCT DIDZA L9 OKSAW DCT BIBPE DCT BUCGO DCT FELCA DCT OFSOX DCT SLANY DCT MALOT/M084F370 NATE RIKAL/N0490F380 N572A TOPPS DCT BEEKN/N0483F400 Q97 KALDA Q131 WAALT Y289 BAHAA DCT HIBAC ALYNA4 |
| Aircraft | A35K/H-SDE2E3GHIJ3J4J5LM1ORWXY/LB1D1 |
Departure
| Time | N/A |
|---|---|
| Airport | London Heathrow Airport (EGLL) |
Arrival
| Time | 2026-04-24 20:12 |
|---|---|
| Airport | Orlando International Airport (KMCO) |
| Time | Latitude | Longitude | Altitude | Speed | Heading |
|---|---|---|---|---|---|
| 2026-04-24 19:25 | 37.78177 | -75.66128 | 37894 ft | 497 kts | 211° |
| 2026-04-24 19:25 | 37.52866 | -75.80440 | 37898 ft | 496 kts | 210° |
| 2026-04-24 19:26 | 37.27786 | -75.94572 | 37880 ft | 496 kts | 209° |
| 2026-04-24 19:26 | 37.02931 | -76.09401 | 37877 ft | 490 kts | 215° |
| 2026-04-24 19:27 | 36.79073 | -76.26093 | 37876 ft | 489 kts | 213° |
| 2026-04-24 19:27 | 36.55345 | -76.42291 | 37850 ft | 487 kts | 213° |
| 2026-04-24 19:28 | 36.31592 | -76.58398 | 37861 ft | 484 kts | 213° |
| 2026-04-24 19:28 | 36.08021 | -76.74271 | 37867 ft | 482 kts | 213° |
| 2026-04-24 19:29 | 35.72478 | -76.97081 | 37882 ft | 476 kts | 211° |
| 2026-04-24 19:30 | 35.48883 | -77.11527 | 37879 ft | 474 kts | 211° |
| 2026-04-24 19:30 | 35.25247 | -77.25911 | 37902 ft | 473 kts | 210° |
| 2026-04-24 19:31 | 35.01775 | -77.40101 | 37909 ft | 473 kts | 210° |
| 2026-04-24 19:31 | 34.78028 | -77.54365 | 37919 ft | 473 kts | 210° |
| 2026-04-24 19:32 | 34.54230 | -77.67819 | 37915 ft | 479 kts | 198° |
| 2026-04-24 19:32 | 34.28185 | -77.74554 | 37925 ft | 480 kts | 195° |
| 2026-04-24 19:33 | 34.01965 | -77.81189 | 37947 ft | 480 kts | 195° |
| 2026-04-24 19:33 | 33.75760 | -77.87874 | 37956 ft | 480 kts | 198° |
| 2026-04-24 19:34 | 33.52517 | -77.95983 | 37956 ft | 480 kts | 199° |
| 2026-04-24 19:34 | 33.26568 | -78.04721 | 37971 ft | 479 kts | 198° |
| 2026-04-24 19:35 | 33.00995 | -78.13293 | 37976 ft | 480 kts | 198° |
| 2026-04-24 19:35 | 32.75157 | -78.21900 | 37985 ft | 480 kts | 198° |
| 2026-04-24 19:36 | 32.49534 | -78.30385 | 37995 ft | 481 kts | 198° |
| 2026-04-24 19:36 | 32.23667 | -78.38900 | 37996 ft | 482 kts | 197° |
| 2026-04-24 19:37 | 31.97889 | -78.47334 | 37996 ft | 483 kts | 197° |
| 2026-04-24 19:37 | 31.71924 | -78.55780 | 38002 ft | 484 kts | 197° |
| 2026-04-24 19:38 | 31.45931 | -78.64317 | 38002 ft | 485 kts | 198° |
| 2026-04-24 19:38 | 31.20168 | -78.73161 | 38011 ft | 484 kts | 198° |
| 2026-04-24 19:39 | 30.94286 | -78.81952 | 38009 ft | 484 kts | 198° |
| 2026-04-24 19:39 | 30.68488 | -78.90667 | 38014 ft | 484 kts | 198° |
| 2026-04-24 19:40 | 30.42478 | -78.99404 | 38012 ft | 484 kts | 198° |
| 2026-04-24 19:40 | 30.19619 | -79.09355 | 38014 ft | 481 kts | 202° |
| 2026-04-24 19:41 | 30.13385 | -79.12073 | 38011 ft | 480 kts | 202° |
| 2026-04-24 19:41 | 30.07110 | -79.14771 | 38011 ft | 480 kts | 200° |
| 2026-04-24 19:42 | 30.00810 | -79.17410 | 38014 ft | 480 kts | 200° |
| 2026-04-24 19:42 | 29.94557 | -79.20085 | 38004 ft | 480 kts | 201° |
| 2026-04-24 19:43 | 29.88316 | -79.22776 | 38015 ft | 480 kts | 201° |
| 2026-04-24 19:43 | 29.82096 | -79.25461 | 38013 ft | 479 kts | 201° |
| 2026-04-24 19:44 | 29.75833 | -79.28163 | 38011 ft | 479 kts | 201° |
| 2026-04-24 19:44 | 29.69580 | -79.30859 | 38012 ft | 479 kts | 201° |
| 2026-04-24 19:45 | 29.63361 | -79.33536 | 37990 ft | 478 kts | 201° |
| 2026-04-24 19:45 | 29.60250 | -79.34871 | 37299 ft | 476 kts | 201° |
| 2026-04-24 19:45 | 29.57143 | -79.36207 | 36601 ft | 476 kts | 201° |
| 2026-04-24 19:45 | 29.54046 | -79.37536 | 35957 ft | 474 kts | 201° |
| 2026-04-24 19:46 | 29.50949 | -79.38865 | 35291 ft | 474 kts | 201° |
| 2026-04-24 19:46 | 29.47893 | -79.40174 | 34715 ft | 472 kts | 201° |
| 2026-04-24 19:46 | 29.44825 | -79.41488 | 34224 ft | 467 kts | 200° |
| 2026-04-24 19:46 | 29.41778 | -79.42793 | 33694 ft | 464 kts | 201° |
| 2026-04-24 19:47 | 29.38769 | -79.44081 | 33176 ft | 459 kts | 201° |
| 2026-04-24 19:47 | 29.35825 | -79.45339 | 32695 ft | 453 kts | 201° |
| 2026-04-24 19:47 | 29.32878 | -79.46600 | 32214 ft | 449 kts | 201° |
| 2026-04-24 19:47 | 29.29966 | -79.47844 | 31738 ft | 444 kts | 201° |
| 2026-04-24 19:48 | 29.27072 | -79.49081 | 31274 ft | 439 kts | 201° |
| 2026-04-24 19:48 | 29.24252 | -79.50285 | 30809 ft | 435 kts | 201° |
| 2026-04-24 19:48 | 29.18619 | -79.52689 | 29857 ft | 427 kts | 202° |
| 2026-04-24 19:49 | 29.13165 | -79.55144 | 28901 ft | 414 kts | 209° |
| 2026-04-24 19:49 | 29.08931 | -79.59326 | 27999 ft | 400 kts | 237° |
| 2026-04-24 19:50 | 29.05837 | -79.67956 | 26734 ft | 386 kts | 252° |
| 2026-04-24 19:50 | 29.04981 | -79.70817 | 26310 ft | 384 kts | 252° |
| 2026-04-24 19:51 | 29.03246 | -79.76565 | 25466 ft | 379 kts | 252° |
| 2026-04-24 19:51 | 29.02380 | -79.79415 | 25042 ft | 377 kts | 252° |
| 2026-04-24 19:52 | 29.00674 | -79.85016 | 24200 ft | 372 kts | 252° |
| 2026-04-24 19:52 | 28.99823 | -79.87805 | 23771 ft | 370 kts | 252° |
| 2026-04-24 19:52 | 28.98986 | -79.90545 | 23312 ft | 368 kts | 252° |
| 2026-04-24 19:52 | 28.98142 | -79.93303 | 22865 ft | 365 kts | 252° |
| 2026-04-24 19:53 | 28.97305 | -79.96039 | 22419 ft | 362 kts | 251° |
| 2026-04-24 19:53 | 28.96482 | -79.98751 | 21984 ft | 360 kts | 252° |
| 2026-04-24 19:53 | 28.94999 | -80.04134 | 21110 ft | 354 kts | 253° |
| 2026-04-24 19:54 | 28.94267 | -80.06817 | 20692 ft | 351 kts | 253° |
| 2026-04-24 19:54 | 28.93536 | -80.09475 | 20270 ft | 349 kts | 253° |
| 2026-04-24 19:54 | 28.92816 | -80.12079 | 19835 ft | 347 kts | 253° |
| 2026-04-24 19:54 | 28.92091 | -80.14695 | 19417 ft | 344 kts | 253° |
| 2026-04-24 19:55 | 28.91847 | -80.15575 | 19284 ft | 343 kts | 253° |
| 2026-04-24 19:55 | 28.90651 | -80.19879 | 18571 ft | 340 kts | 253° |
| 2026-04-24 19:55 | 28.89936 | -80.22448 | 18112 ft | 338 kts | 253° |
| 2026-04-24 19:55 | 28.89465 | -80.24137 | 17815 ft | 336 kts | 252° |
| 2026-04-24 19:56 | 28.88529 | -80.27493 | 17260 ft | 332 kts | 252° |
| 2026-04-24 19:56 | 28.88055 | -80.29191 | 16924 ft | 332 kts | 252° |
| 2026-04-24 19:56 | 28.87361 | -80.31675 | 16550 ft | 330 kts | 252° |
| 2026-04-24 19:56 | 28.86665 | -80.34165 | 16164 ft | 327 kts | 252° |
| 2026-04-24 19:57 | 28.85974 | -80.36634 | 15752 ft | 325 kts | 252° |
| 2026-04-24 19:57 | 28.85287 | -80.39089 | 15340 ft | 324 kts | 252° |
| 2026-04-24 19:57 | 28.84610 | -80.41505 | 14934 ft | 322 kts | 252° |
| 2026-04-24 19:57 | 28.83930 | -80.43933 | 14547 ft | 320 kts | 252° |
| 2026-04-24 19:58 | 28.83261 | -80.46357 | 14163 ft | 322 kts | 253° |
| 2026-04-24 19:58 | 28.82822 | -80.48915 | 13872 ft | 331 kts | 262° |
| 2026-04-24 19:58 | 28.82587 | -80.51526 | 13543 ft | 335 kts | 264° |
| 2026-04-24 19:58 | 28.82378 | -80.54183 | 13257 ft | 335 kts | 264° |
| 2026-04-24 19:59 | 28.82170 | -80.56829 | 12990 ft | 334 kts | 264° |
| 2026-04-24 19:59 | 28.81960 | -80.59459 | 12723 ft | 332 kts | 264° |
| 2026-04-24 19:59 | 28.81746 | -80.62094 | 12460 ft | 331 kts | 264° |
| 2026-04-24 19:59 | 28.81537 | -80.64667 | 12189 ft | 329 kts | 264° |
| 2026-04-24 20:00 | 28.81324 | -80.67265 | 11920 ft | 327 kts | 264° |
| 2026-04-24 20:00 | 28.81112 | -80.69847 | 11660 ft | 326 kts | 264° |
| 2026-04-24 20:00 | 28.80900 | -80.72414 | 11398 ft | 324 kts | 264° |
| 2026-04-24 20:00 | 28.80687 | -80.74979 | 11136 ft | 323 kts | 264° |
| 2026-04-24 20:01 | 28.80483 | -80.77447 | 10977 ft | 310 kts | 263° |
| 2026-04-24 20:01 | 28.80285 | -80.79848 | 10778 ft | 297 kts | 264° |
| 2026-04-24 20:01 | 28.80096 | -80.82152 | 10549 ft | 286 kts | 263° |
| 2026-04-24 20:01 | 28.79914 | -80.84383 | 10324 ft | 280 kts | 263° |
| 2026-04-24 20:02 | 28.79734 | -80.86573 | 10085 ft | 280 kts | 263° |
| 2026-04-24 20:02 | 28.79550 | -80.88785 | 9749 ft | 278 kts | 263° |
| 2026-04-24 20:02 | 28.79367 | -80.90984 | 9471 ft | 277 kts | 263° |
| 2026-04-24 20:02 | 28.79182 | -80.93179 | 9254 ft | 279 kts | 263° |
| 2026-04-24 20:03 | 28.78997 | -80.95378 | 9020 ft | 279 kts | 263° |
| 2026-04-24 20:03 | 28.78810 | -80.97587 | 8789 ft | 278 kts | 263° |
| 2026-04-24 20:03 | 28.78627 | -80.99757 | 8568 ft | 278 kts | 263° |
| 2026-04-24 20:03 | 28.78441 | -81.01944 | 8372 ft | 273 kts | 263° |
| 2026-04-24 20:04 | 28.78266 | -81.04048 | 8217 ft | 260 kts | 263° |
| 2026-04-24 20:04 | 28.78086 | -81.06060 | 8066 ft | 248 kts | 262° |
| 2026-04-24 20:04 | 28.77911 | -81.07953 | 7865 ft | 239 kts | 262° |
| 2026-04-24 20:04 | 28.77739 | -81.09813 | 7623 ft | 232 kts | 262° |
| 2026-04-24 20:05 | 28.77571 | -81.11641 | 7413 ft | 230 kts | 262° |
| 2026-04-24 20:05 | 28.77405 | -81.13435 | 7220 ft | 230 kts | 262° |
| 2026-04-24 20:05 | 28.77108 | -81.15216 | 7019 ft | 228 kts | 248° |
| 2026-04-24 20:05 | 28.76234 | -81.16694 | 6964 ft | 226 kts | 224° |
| 2026-04-24 20:06 | 28.75068 | -81.17913 | 6941 ft | 229 kts | 220° |
| 2026-04-24 20:06 | 28.73877 | -81.19084 | 6611 ft | 228 kts | 220° |
| 2026-04-24 20:06 | 28.72669 | -81.20278 | 6197 ft | 230 kts | 220° |
| 2026-04-24 20:06 | 28.71469 | -81.21475 | 5666 ft | 227 kts | 220° |
| 2026-04-24 20:07 | 28.70687 | -81.22261 | 5410 ft | 225 kts | 220° |
| 2026-04-24 20:07 | 28.69125 | -81.23833 | 5038 ft | 226 kts | 220° |
| 2026-04-24 20:07 | 28.67951 | -81.25014 | 4751 ft | 223 kts | 220° |
| 2026-04-24 20:07 | 28.66785 | -81.26189 | 4446 ft | 222 kts | 220° |
| 2026-04-24 20:08 | 28.65620 | -81.27354 | 4167 ft | 223 kts | 218° |
| 2026-04-24 20:08 | 28.64257 | -81.28153 | 3886 ft | 221 kts | 195° |
| 2026-04-24 20:08 | 28.62757 | -81.28404 | 3609 ft | 220 kts | 179° |
| 2026-04-24 20:08 | 28.61223 | -81.28380 | 3315 ft | 220 kts | 178° |
| 2026-04-24 20:09 | 28.59696 | -81.28394 | 3034 ft | 217 kts | 178° |
| 2026-04-24 20:09 | 28.58198 | -81.28384 | 2737 ft | 213 kts | 178° |
| 2026-04-24 20:09 | 28.56739 | -81.28367 | 2463 ft | 209 kts | 178° |
| 2026-04-24 20:09 | 28.55318 | -81.28355 | 2215 ft | 198 kts | 178° |
| 2026-04-24 20:10 | 28.53987 | -81.28344 | 1954 ft | 184 kts | 178° |
| 2026-04-24 20:10 | 28.52724 | -81.28332 | 1716 ft | 179 kts | 178° |
| 2026-04-24 20:10 | 28.51484 | -81.28319 | 1484 ft | 178 kts | 178° |
| 2026-04-24 20:10 | 28.50263 | -81.28308 | 1255 ft | 178 kts | 178° |
| 2026-04-24 20:11 | 28.49022 | -81.28297 | 1040 ft | 177 kts | 178° |
| 2026-04-24 20:11 | 28.47806 | -81.28285 | 815 ft | 169 kts | 178° |
| 2026-04-24 20:11 | 28.46677 | -81.28277 | 597 ft | 156 kts | 178° |
| 2026-04-24 20:11 | 28.45629 | -81.28262 | 382 ft | 144 kts | 177° |
| 2026-04-24 20:12 | 28.44651 | -81.28246 | 197 ft | 137 kts | 180° |
| 2026-04-24 20:12 | 28.43733 | -81.28244 | 109 ft | 117 kts | 179° |
| 2026-04-24 20:12 | 28.43108 | -81.28243 | 105 ft | 64 kts | 180° |
| 2026-04-24 20:12 | 28.42769 | -81.28242 | 110 ft | 44 kts | 180° |
| 2026-04-24 20:13 | 28.42543 | -81.28317 | 111 ft | 13 kts | 236° |
| 2026-04-24 20:13 | 28.42500 | -81.28421 | 111 ft | 16 kts | 248° |
| 2026-04-24 20:13 | 28.42460 | -81.28553 | 110 ft | 19 kts | 251° |
| 2026-04-24 20:13 | 28.42413 | -81.28709 | 109 ft | 23 kts | 251° |
| 2026-04-24 20:14 | 28.42360 | -81.28879 | 111 ft | 23 kts | 252° |
| 2026-04-24 20:14 | 28.42305 | -81.29061 | 111 ft | 26 kts | 250° |
| 2026-04-24 20:14 | 28.42277 | -81.29261 | 111 ft | 27 kts | 266° |
| 2026-04-24 20:14 | 28.42281 | -81.29478 | 106 ft | 29 kts | 269° |
| 2026-04-24 20:15 | 28.42281 | -81.29715 | 106 ft | 31 kts | 268° |
| 2026-04-24 20:15 | 28.42278 | -81.29953 | 111 ft | 31 kts | 270° |
| 2026-04-24 20:15 | 28.42329 | -81.30140 | 109 ft | 20 kts | 349° |
| 2026-04-24 20:15 | 28.42469 | -81.30164 | 109 ft | 20 kts | 312° |
| 2026-04-24 20:16 | 28.42544 | -81.30274 | 107 ft | 10 kts | 346° |
| 2026-04-24 20:16 | 28.42587 | -81.30253 | 108 ft | 5 kts | 64° |
| 2026-04-24 20:16 | 28.42617 | -81.30230 | 108 ft | 6 kts | 8° |
| 2026-04-24 20:16 | 28.42641 | -81.30228 | 109 ft | 3 kts | 4° |
| 2026-04-24 20:17 | 28.42653 | -81.30227 | 109 ft | 1 kts | 2° |